sensor_id;sensor_type;location;lat;lon;timestamp;P1;durP1;ratioP1;P2;durP2;ratioP2
28353;SDS011;15603;50.878;8.036;2023-08-12T00:01:17;6.05;;;2.97;;
28353;SDS011;15603;50.878;8.036;2023-08-12T00:03:48;6.18;;;2.83;;
28353;SDS011;15603;50.878;8.036;2023-08-12T00:06:15;7.18;;;2.95;;
28353;SDS011;15603;50.878;8.036;2023-08-12T00:08:42;5.75;;;2.67;;
28353;SDS011;15603;50.878;8.036;2023-08-12T00:11:09;5.85;;;2.60;;
28353;SDS011;15603;50.878;8.036;2023-08-12T00:13:37;5.72;;;3.05;;
28353;SDS011;15603;50.878;8.036;2023-08-12T00:16:04;5.13;;;3.08;;
28353;SDS011;15603;50.878;8.036;2023-08-12T00:18:31;5.82;;;2.72;;
28353;SDS011;15603;50.878;8.036;2023-08-12T00:21:07;5.00;;;2.47;;
28353;SDS011;15603;50.878;8.036;2023-08-12T00:23:37;4.53;;;2.60;;
28353;SDS011;15603;50.878;8.036;2023-08-12T00:26:10;7.85;;;2.97;;
28353;SDS011;15603;50.878;8.036;2023-08-12T00:28:37;9.18;;;2.70;;
28353;SDS011;15603;50.878;8.036;2023-08-12T00:31:04;4.63;;;2.67;;
28353;SDS011;15603;50.878;8.036;2023-08-12T00:33:32;8.48;;;2.67;;
28353;SDS011;15603;50.878;8.036;2023-08-12T00:35:59;6.35;;;3.10;;
28353;SDS011;15603;50.878;8.036;2023-08-12T00:38:27;4.80;;;3.10;;
28353;SDS011;15603;50.878;8.036;2023-08-12T00:40:55;5.35;;;2.80;;
28353;SDS011;15603;50.878;8.036;2023-08-12T00:43:22;9.95;;;3.00;;
28353;SDS011;15603;50.878;8.036;2023-08-12T00:45:49;6.28;;;3.15;;
28353;SDS011;15603;50.878;8.036;2023-08-12T00:48:16;5.50;;;2.65;;
28353;SDS011;15603;50.878;8.036;2023-08-12T00:50:44;5.18;;;2.42;;
28353;SDS011;15603;50.878;8.036;2023-08-12T00:53:12;10.15;;;2.75;;
28353;SDS011;15603;50.878;8.036;2023-08-12T00:55:41;7.63;;;2.67;;
28353;SDS011;15603;50.878;8.036;2023-08-12T00:58:08;3.38;;;2.00;;
28353;SDS011;15603;50.878;8.036;2023-08-12T01:00:36;12.65;;;2.85;;
28353;SDS011;15603;50.878;8.036;2023-08-12T01:03:04;7.22;;;2.65;;
28353;SDS011;15603;50.878;8.036;2023-08-12T01:05:32;8.13;;;3.45;;
28353;SDS011;15603;50.878;8.036;2023-08-12T01:08:00;5.53;;;2.80;;
28353;SDS011;15603;50.878;8.036;2023-08-12T01:10:30;7.18;;;2.55;;
28353;SDS011;15603;50.878;8.036;2023-08-12T01:15:33;4.88;;;2.45;;
28353;SDS011;15603;50.878;8.036;2023-08-12T01:18:02;5.15;;;2.92;;
28353;SDS011;15603;50.878;8.036;2023-08-12T01:20:32;2.75;;;2.10;;
28353;SDS011;15603;50.878;8.036;2023-08-12T01:23:07;5.15;;;3.13;;
28353;SDS011;15603;50.878;8.036;2023-08-12T01:25:37;6.45;;;2.45;;
28353;SDS011;15603;50.878;8.036;2023-08-12T01:28:05;4.80;;;2.63;;
28353;SDS011;15603;50.878;8.036;2023-08-12T01:30:37;9.75;;;2.75;;
28353;SDS011;15603;50.878;8.036;2023-08-12T01:33:17;6.90;;;3.50;;
28353;SDS011;15603;50.878;8.036;2023-08-12T01:36:00;6.28;;;2.72;;
28353;SDS011;15603;50.878;8.036;2023-08-12T01:38:38;6.68;;;3.45;;
28353;SDS011;15603;50.878;8.036;2023-08-12T01:41:10;8.90;;;3.30;;
28353;SDS011;15603;50.878;8.036;2023-08-12T01:43:39;10.50;;;3.10;;
28353;SDS011;15603;50.878;8.036;2023-08-12T01:46:08;8.13;;;2.90;;
28353;SDS011;15603;50.878;8.036;2023-08-12T01:48:36;8.23;;;2.95;;
28353;SDS011;15603;50.878;8.036;2023-08-12T01:51:03;5.95;;;2.95;;
28353;SDS011;15603;50.878;8.036;2023-08-12T01:53:30;7.47;;;3.17;;
28353;SDS011;15603;50.878;8.036;2023-08-12T01:55:59;10.65;;;3.97;;
28353;SDS011;15603;50.878;8.036;2023-08-12T01:58:26;5.93;;;2.83;;
28353;SDS011;15603;50.878;8.036;2023-08-12T02:00:53;5.13;;;3.13;;
28353;SDS011;15603;50.878;8.036;2023-08-12T02:03:20;5.57;;;2.85;;
28353;SDS011;15603;50.878;8.036;2023-08-12T02:05:48;6.25;;;3.05;;
28353;SDS011;15603;50.878;8.036;2023-08-12T02:08:15;7.75;;;2.90;;
28353;SDS011;15603;50.878;8.036;2023-08-12T02:10:42;6.68;;;2.90;;
28353;SDS011;15603;50.878;8.036;2023-08-12T02:13:09;5.13;;;3.22;;
28353;SDS011;15603;50.878;8.036;2023-08-12T02:15:36;5.18;;;3.00;;
28353;SDS011;15603;50.878;8.036;2023-08-12T02:18:04;8.65;;;2.72;;
28353;SDS011;15603;50.878;8.036;2023-08-12T02:20:31;6.70;;;2.75;;
28353;SDS011;15603;50.878;8.036;2023-08-12T02:23:00;7.28;;;2.88;;
28353;SDS011;15603;50.878;8.036;2023-08-12T02:25:28;13.63;;;4.10;;
28353;SDS011;15603;50.878;8.036;2023-08-12T02:27:55;3.92;;;2.45;;
28353;SDS011;15603;50.878;8.036;2023-08-12T02:30:22;6.97;;;3.40;;
28353;SDS011;15603;50.878;8.036;2023-08-12T02:32:50;5.68;;;3.45;;
28353;SDS011;15603;50.878;8.036;2023-08-12T02:35:17;6.53;;;3.55;;
28353;SDS011;15603;50.878;8.036;2023-08-12T02:37:45;7.88;;;4.15;;
28353;SDS011;15603;50.878;8.036;2023-08-12T02:40:12;9.23;;;3.92;;
28353;SDS011;15603;50.878;8.036;2023-08-12T02:42:39;6.50;;;4.15;;
28353;SDS011;15603;50.878;8.036;2023-08-12T02:45:06;6.28;;;3.47;;
28353;SDS011;15603;50.878;8.036;2023-08-12T02:47:33;11.80;;;4.70;;
28353;SDS011;15603;50.878;8.036;2023-08-12T02:50:00;8.07;;;4.13;;
28353;SDS011;15603;50.878;8.036;2023-08-12T02:52:27;10.40;;;4.07;;
28353;SDS011;15603;50.878;8.036;2023-08-12T02:54:55;11.73;;;4.15;;
28353;SDS011;15603;50.878;8.036;2023-08-12T02:57:23;13.68;;;4.25;;
28353;SDS011;15603;50.878;8.036;2023-08-12T02:59:50;7.15;;;4.45;;
28353;SDS011;15603;50.878;8.036;2023-08-12T03:02:17;7.07;;;3.90;;
28353;SDS011;15603;50.878;8.036;2023-08-12T03:04:44;7.75;;;4.25;;
28353;SDS011;15603;50.878;8.036;2023-08-12T03:07:11;6.40;;;4.03;;
28353;SDS011;15603;50.878;8.036;2023-08-12T03:09:39;7.55;;;4.38;;
28353;SDS011;15603;50.878;8.036;2023-08-12T03:12:07;7.32;;;4.15;;
28353;SDS011;15603;50.878;8.036;2023-08-12T03:14:34;5.43;;;3.83;;
28353;SDS011;15603;50.878;8.036;2023-08-12T03:17:02;7.38;;;3.78;;
28353;SDS011;15603;50.878;8.036;2023-08-12T03:19:30;5.30;;;3.85;;
28353;SDS011;15603;50.878;8.036;2023-08-12T03:21:57;8.75;;;4.28;;
28353;SDS011;15603;50.878;8.036;2023-08-12T03:24:24;7.18;;;3.95;;
28353;SDS011;15603;50.878;8.036;2023-08-12T03:26:52;10.63;;;4.07;;
28353;SDS011;15603;50.878;8.036;2023-08-12T03:29:19;6.40;;;4.30;;
28353;SDS011;15603;50.878;8.036;2023-08-12T03:31:47;7.65;;;4.80;;
28353;SDS011;15603;50.878;8.036;2023-08-12T03:34:14;7.25;;;4.43;;
28353;SDS011;15603;50.878;8.036;2023-08-12T03:36:43;6.40;;;4.13;;
28353;SDS011;15603;50.878;8.036;2023-08-12T03:39:12;9.30;;;4.53;;
28353;SDS011;15603;50.878;8.036;2023-08-12T03:41:40;9.30;;;5.60;;
28353;SDS011;15603;50.878;8.036;2023-08-12T03:44:07;7.55;;;4.35;;
28353;SDS011;15603;50.878;8.036;2023-08-12T03:46:34;9.20;;;4.63;;
28353;SDS011;15603;50.878;8.036;2023-08-12T03:49:02;9.13;;;4.80;;
28353;SDS011;15603;50.878;8.036;2023-08-12T03:51:30;10.40;;;5.25;;
28353;SDS011;15603;50.878;8.036;2023-08-12T03:53:57;7.78;;;4.78;;
28353;SDS011;15603;50.878;8.036;2023-08-12T03:56:26;9.38;;;5.35;;
28353;SDS011;15603;50.878;8.036;2023-08-12T03:58:54;8.45;;;5.65;;
28353;SDS011;15603;50.878;8.036;2023-08-12T04:01:22;9.20;;;5.35;;
28353;SDS011;15603;50.878;8.036;2023-08-12T04:03:50;8.50;;;5.15;;
28353;SDS011;15603;50.878;8.036;2023-08-12T04:06:18;10.45;;;5.43;;
28353;SDS011;15603;50.878;8.036;2023-08-12T04:08:45;10.00;;;5.60;;
28353;SDS011;15603;50.878;8.036;2023-08-12T04:11:12;9.48;;;5.45;;
28353;SDS011;15603;50.878;8.036;2023-08-12T04:13:40;11.02;;;6.15;;
28353;SDS011;15603;50.878;8.036;2023-08-12T04:16:07;10.65;;;6.93;;
28353;SDS011;15603;50.878;8.036;2023-08-12T04:18:35;8.57;;;5.45;;
28353;SDS011;15603;50.878;8.036;2023-08-12T04:21:03;10.45;;;6.07;;
28353;SDS011;15603;50.878;8.036;2023-08-12T04:23:30;9.27;;;5.93;;
28353;SDS011;15603;50.878;8.036;2023-08-12T04:25:57;9.80;;;6.72;;
28353;SDS011;15603;50.878;8.036;2023-08-12T04:28:26;9.93;;;6.40;;
28353;SDS011;15603;50.878;8.036;2023-08-12T04:30:54;9.45;;;6.00;;
28353;SDS011;15603;50.878;8.036;2023-08-12T04:33:22;10.10;;;6.00;;
28353;SDS011;15603;50.878;8.036;2023-08-12T04:35:50;8.38;;;5.68;;
28353;SDS011;15603;50.878;8.036;2023-08-12T04:38:21;7.70;;;5.13;;
28353;SDS011;15603;50.878;8.036;2023-08-12T04:40:49;9.95;;;5.05;;
28353;SDS011;15603;50.878;8.036;2023-08-12T04:43:17;8.65;;;5.47;;
28353;SDS011;15603;50.878;8.036;2023-08-12T04:45:47;8.82;;;5.88;;
28353;SDS011;15603;50.878;8.036;2023-08-12T04:48:18;9.45;;;5.72;;
28353;SDS011;15603;50.878;8.036;2023-08-12T04:50:45;8.25;;;5.50;;
28353;SDS011;15603;50.878;8.036;2023-08-12T04:53:12;9.23;;;6.07;;
28353;SDS011;15603;50.878;8.036;2023-08-12T04:55:40;9.50;;;5.50;;
28353;SDS011;15603;50.878;8.036;2023-08-12T04:58:07;7.65;;;5.38;;
28353;SDS011;15603;50.878;8.036;2023-08-12T05:00:34;12.45;;;6.07;;
28353;SDS011;15603;50.878;8.036;2023-08-12T05:03:02;9.02;;;5.20;;
28353;SDS011;15603;50.878;8.036;2023-08-12T05:05:29;9.23;;;5.65;;
28353;SDS011;15603;50.878;8.036;2023-08-12T05:07:56;8.07;;;5.05;;
28353;SDS011;15603;50.878;8.036;2023-08-12T05:10:23;9.20;;;5.65;;
28353;SDS011;15603;50.878;8.036;2023-08-12T05:12:51;13.63;;;5.57;;
28353;SDS011;15603;50.878;8.036;2023-08-12T05:15:21;12.48;;;5.45;;
28353;SDS011;15603;50.878;8.036;2023-08-12T05:17:49;9.70;;;4.93;;
28353;SDS011;15603;50.878;8.036;2023-08-12T05:20:19;8.60;;;5.95;;
28353;SDS011;15603;50.878;8.036;2023-08-12T05:22:47;9.32;;;5.30;;
28353;SDS011;15603;50.878;8.036;2023-08-12T05:25:14;14.00;;;5.70;;
28353;SDS011;15603;50.878;8.036;2023-08-12T05:27:41;8.95;;;5.35;;
28353;SDS011;15603;50.878;8.036;2023-08-12T05:30:08;8.35;;;4.90;;
28353;SDS011;15603;50.878;8.036;2023-08-12T05:32:36;12.00;;;5.65;;
28353;SDS011;15603;50.878;8.036;2023-08-12T05:35:03;7.43;;;4.97;;
28353;SDS011;15603;50.878;8.036;2023-08-12T05:37:30;8.70;;;5.50;;
28353;SDS011;15603;50.878;8.036;2023-08-12T05:39:57;9.98;;;5.68;;
28353;SDS011;15603;50.878;8.036;2023-08-12T05:42:24;8.73;;;5.32;;
28353;SDS011;15603;50.878;8.036;2023-08-12T05:44:52;8.40;;;5.13;;
28353;SDS011;15603;50.878;8.036;2023-08-12T05:47:19;7.05;;;5.80;;
28353;SDS011;15603;50.878;8.036;2023-08-12T05:49:46;9.07;;;5.78;;
28353;SDS011;15603;50.878;8.036;2023-08-12T05:52:13;11.38;;;5.78;;
28353;SDS011;15603;50.878;8.036;2023-08-12T05:54:40;9.05;;;5.60;;
28353;SDS011;15603;50.878;8.036;2023-08-12T05:57:08;9.02;;;5.80;;
28353;SDS011;15603;50.878;8.036;2023-08-12T05:59:35;8.85;;;6.07;;
28353;SDS011;15603;50.878;8.036;2023-08-12T06:02:02;8.23;;;5.85;;
28353;SDS011;15603;50.878;8.036;2023-08-12T06:04:29;10.23;;;5.75;;
28353;SDS011;15603;50.878;8.036;2023-08-12T06:06:56;11.48;;;5.63;;
28353;SDS011;15603;50.878;8.036;2023-08-12T06:09:23;8.30;;;5.95;;
28353;SDS011;15603;50.878;8.036;2023-08-12T06:11:50;11.85;;;6.35;;
28353;SDS011;15603;50.878;8.036;2023-08-12T06:14:17;8.63;;;5.75;;
28353;SDS011;15603;50.878;8.036;2023-08-12T06:16:44;8.52;;;5.43;;
28353;SDS011;15603;50.878;8.036;2023-08-12T06:19:12;7.57;;;5.15;;
28353;SDS011;15603;50.878;8.036;2023-08-12T06:21:39;11.40;;;5.32;;
28353;SDS011;15603;50.878;8.036;2023-08-12T06:24:06;7.43;;;5.32;;
28353;SDS011;15603;50.878;8.036;2023-08-12T06:26:33;9.43;;;6.05;;
28353;SDS011;15603;50.878;8.036;2023-08-12T06:29:00;8.85;;;6.07;;
28353;SDS011;15603;50.878;8.036;2023-08-12T06:31:31;11.18;;;6.00;;
28353;SDS011;15603;50.878;8.036;2023-08-12T06:33:59;10.38;;;5.75;;
28353;SDS011;15603;50.878;8.036;2023-08-12T06:36:26;7.80;;;4.70;;
28353;SDS011;15603;50.878;8.036;2023-08-12T06:38:53;7.55;;;5.05;;
28353;SDS011;15603;50.878;8.036;2023-08-12T06:41:20;7.97;;;4.90;;
28353;SDS011;15603;50.878;8.036;2023-08-12T06:43:47;8.43;;;5.00;;
28353;SDS011;15603;50.878;8.036;2023-08-12T06:46:14;7.72;;;5.13;;
28353;SDS011;15603;50.878;8.036;2023-08-12T06:48:42;6.65;;;5.05;;
28353;SDS011;15603;50.878;8.036;2023-08-12T06:51:09;7.45;;;5.40;;
28353;SDS011;15603;50.878;8.036;2023-08-12T06:53:39;9.13;;;5.72;;
28353;SDS011;15603;50.878;8.036;2023-08-12T06:56:06;8.88;;;5.63;;
28353;SDS011;15603;50.878;8.036;2023-08-12T06:58:33;8.50;;;5.70;;
28353;SDS011;15603;50.878;8.036;2023-08-12T07:01:00;9.25;;;5.60;;
28353;SDS011;15603;50.878;8.036;2023-08-12T07:03:28;9.88;;;6.28;;
28353;SDS011;15603;50.878;8.036;2023-08-12T07:05:55;9.35;;;6.03;;
28353;SDS011;15603;50.878;8.036;2023-08-12T07:08:22;8.27;;;5.40;;
28353;SDS011;15603;50.878;8.036;2023-08-12T07:10:49;7.55;;;4.80;;
28353;SDS011;15603;50.878;8.036;2023-08-12T07:13:16;8.13;;;5.07;;
28353;SDS011;15603;50.878;8.036;2023-08-12T07:15:43;8.88;;;5.10;;
28353;SDS011;15603;50.878;8.036;2023-08-12T07:18:11;10.00;;;5.50;;
28353;SDS011;15603;50.878;8.036;2023-08-12T07:20:38;7.80;;;4.97;;
28353;SDS011;15603;50.878;8.036;2023-08-12T07:23:05;6.38;;;4.70;;
28353;SDS011;15603;50.878;8.036;2023-08-12T07:25:32;14.10;;;6.05;;
28353;SDS011;15603;50.878;8.036;2023-08-12T07:27:59;7.25;;;4.95;;
28353;SDS011;15603;50.878;8.036;2023-08-12T07:30:26;5.53;;;3.88;;
28353;SDS011;15603;50.878;8.036;2023-08-12T07:32:54;6.82;;;3.80;;
28353;SDS011;15603;50.878;8.036;2023-08-12T07:35:21;7.63;;;3.55;;
28353;SDS011;15603;50.878;8.036;2023-08-12T07:37:48;2.58;;;2.13;;
28353;SDS011;15603;50.878;8.036;2023-08-12T07:40:15;3.97;;;2.38;;
28353;SDS011;15603;50.878;8.036;2023-08-12T07:42:42;6.15;;;2.95;;
28353;SDS011;15603;50.878;8.036;2023-08-12T07:45:09;4.18;;;2.60;;
28353;SDS011;15603;50.878;8.036;2023-08-12T07:47:36;3.13;;;2.10;;
28353;SDS011;15603;50.878;8.036;2023-08-12T07:50:06;3.17;;;2.13;;
28353;SDS011;15603;50.878;8.036;2023-08-12T07:52:33;2.10;;;1.75;;
28353;SDS011;15603;50.878;8.036;2023-08-12T07:55:01;2.67;;;1.83;;
28353;SDS011;15603;50.878;8.036;2023-08-12T07:57:28;4.82;;;1.88;;
28353;SDS011;15603;50.878;8.036;2023-08-12T07:59:55;3.00;;;1.55;;
28353;SDS011;15603;50.878;8.036;2023-08-12T08:02:22;3.92;;;1.73;;
28353;SDS011;15603;50.878;8.036;2023-08-12T08:04:50;6.22;;;1.95;;
28353;SDS011;15603;50.878;8.036;2023-08-12T08:07:17;2.55;;;1.60;;
28353;SDS011;15603;50.878;8.036;2023-08-12T08:09:44;5.05;;;1.88;;
28353;SDS011;15603;50.878;8.036;2023-08-12T08:12:12;6.00;;;1.83;;
28353;SDS011;15603;50.878;8.036;2023-08-12T08:14:39;2.53;;;1.27;;
28353;SDS011;15603;50.878;8.036;2023-08-12T08:17:07;1.83;;;1.25;;
28353;SDS011;15603;50.878;8.036;2023-08-12T08:19:34;2.22;;;1.13;;
28353;SDS011;15603;50.878;8.036;2023-08-12T08:22:01;12.13;;;3.45;;
28353;SDS011;15603;50.878;8.036;2023-08-12T08:24:29;29.67;;;7.43;;
28353;SDS011;15603;50.878;8.036;2023-08-12T08:26:56;4.75;;;2.00;;
28353;SDS011;15603;50.878;8.036;2023-08-12T08:29:24;14.98;;;5.32;;
28353;SDS011;15603;50.878;8.036;2023-08-12T08:31:51;3.63;;;2.05;;
28353;SDS011;15603;50.878;8.036;2023-08-12T08:34:18;3.95;;;1.85;;
28353;SDS011;15603;50.878;8.036;2023-08-12T08:36:45;4.18;;;1.50;;
28353;SDS011;15603;50.878;8.036;2023-08-12T08:39:12;9.65;;;2.15;;
28353;SDS011;15603;50.878;8.036;2023-08-12T08:41:40;2.03;;;1.27;;
28353;SDS011;15603;50.878;8.036;2023-08-12T08:44:08;2.10;;;1.42;;
28353;SDS011;15603;50.878;8.036;2023-08-12T08:46:36;3.10;;;1.45;;
28353;SDS011;15603;50.878;8.036;2023-08-12T08:49:03;1.80;;;1.00;;
28353;SDS011;15603;50.878;8.036;2023-08-12T08:51:31;1.38;;;0.80;;
28353;SDS011;15603;50.878;8.036;2023-08-12T08:53:59;2.92;;;1.20;;
28353;SDS011;15603;50.878;8.036;2023-08-12T08:56:33;2.40;;;1.17;;
28353;SDS011;15603;50.878;8.036;2023-08-12T08:59:11;2.30;;;1.13;;
28353;SDS011;15603;50.878;8.036;2023-08-12T09:01:38;4.18;;;1.25;;
28353;SDS011;15603;50.878;8.036;2023-08-12T09:04:06;1.55;;;0.82;;
28353;SDS011;15603;50.878;8.036;2023-08-12T09:06:34;2.28;;;0.75;;
28353;SDS011;15603;50.878;8.036;2023-08-12T09:09:03;1.85;;;0.85;;
28353;SDS011;15603;50.878;8.036;2023-08-12T09:11:35;0.80;;;0.80;;
28353;SDS011;15603;50.878;8.036;2023-08-12T09:14:05;1.67;;;0.95;;
28353;SDS011;15603;50.878;8.036;2023-08-12T09:16:33;1.52;;;0.80;;
28353;SDS011;15603;50.878;8.036;2023-08-12T09:19:01;0.95;;;0.80;;
28353;SDS011;15603;50.878;8.036;2023-08-12T09:21:28;1.58;;;0.88;;
28353;SDS011;15603;50.878;8.036;2023-08-12T09:23:55;2.08;;;0.70;;
28353;SDS011;15603;50.878;8.036;2023-08-12T09:26:22;0.68;;;0.60;;
28353;SDS011;15603;50.878;8.036;2023-08-12T09:28:50;0.80;;;0.70;;
28353;SDS011;15603;50.878;8.036;2023-08-12T09:31:23;1.02;;;0.70;;
28353;SDS011;15603;50.878;8.036;2023-08-12T09:33:53;5.28;;;0.88;;
28353;SDS011;15603;50.878;8.036;2023-08-12T09:36:25;1.55;;;0.85;;
28353;SDS011;15603;50.878;8.036;2023-08-12T09:38:55;0.75;;;0.70;;
28353;SDS011;15603;50.878;8.036;2023-08-12T09:41:24;1.63;;;1.08;;
28353;SDS011;15603;50.878;8.036;2023-08-12T09:43:52;1.08;;;0.80;;
28353;SDS011;15603;50.878;8.036;2023-08-12T09:46:21;0.88;;;0.77;;
28353;SDS011;15603;50.878;8.036;2023-08-12T09:48:50;1.00;;;0.90;;
28353;SDS011;15603;50.878;8.036;2023-08-12T09:51:21;1.92;;;1.08;;
28353;SDS011;15603;50.878;8.036;2023-08-12T09:53:49;1.00;;;0.70;;
28353;SDS011;15603;50.878;8.036;2023-08-12T09:56:22;1.42;;;0.98;;
28353;SDS011;15603;50.878;8.036;2023-08-12T09:58:50;0.95;;;0.80;;
28353;SDS011;15603;50.878;8.036;2023-08-12T10:01:19;1.65;;;0.75;;
28353;SDS011;15603;50.878;8.036;2023-08-12T10:03:50;0.57;;;0.52;;
28353;SDS011;15603;50.878;8.036;2023-08-12T10:06:18;1.42;;;0.85;;
28353;SDS011;15603;50.878;8.036;2023-08-12T10:08:47;1.08;;;0.68;;
28353;SDS011;15603;50.878;8.036;2023-08-12T10:11:15;1.38;;;0.85;;
28353;SDS011;15603;50.878;8.036;2023-08-12T10:13:42;2.17;;;0.70;;
28353;SDS011;15603;50.878;8.036;2023-08-12T10:16:10;1.10;;;0.73;;
28353;SDS011;15603;50.878;8.036;2023-08-12T10:18:39;3.42;;;0.80;;
28353;SDS011;15603;50.878;8.036;2023-08-12T10:21:09;2.15;;;0.98;;
28353;SDS011;15603;50.878;8.036;2023-08-12T10:23:41;0.77;;;0.50;;
28353;SDS011;15603;50.878;8.036;2023-08-12T10:26:12;0.50;;;0.50;;
28353;SDS011;15603;50.878;8.036;2023-08-12T10:28:41;2.03;;;1.02;;
28353;SDS011;15603;50.878;8.036;2023-08-12T10:31:10;3.60;;;0.55;;
28353;SDS011;15603;50.878;8.036;2023-08-12T10:33:38;0.85;;;0.60;;
28353;SDS011;15603;50.878;8.036;2023-08-12T10:36:06;1.02;;;0.70;;
28353;SDS011;15603;50.878;8.036;2023-08-12T10:38:34;1.17;;;0.60;;
28353;SDS011;15603;50.878;8.036;2023-08-12T10:41:18;4.55;;;0.70;;
28353;SDS011;15603;50.878;8.036;2023-08-12T10:43:50;1.45;;;0.52;;
28353;SDS011;15603;50.878;8.036;2023-08-12T10:46:24;1.13;;;0.60;;
28353;SDS011;15603;50.878;8.036;2023-08-12T10:49:18;2.50;;;0.60;;
28353;SDS011;15603;50.878;8.036;2023-08-12T10:54:22;0.55;;;0.50;;
28353;SDS011;15603;50.878;8.036;2023-08-12T10:57:10;2.90;;;0.40;;
28353;SDS011;15603;50.878;8.036;2023-08-12T11:02:30;1.65;;;0.60;;
28353;SDS011;15603;50.878;8.036;2023-08-12T11:05:04;0.60;;;0.50;;
28353;SDS011;15603;50.878;8.036;2023-08-12T11:10:10;1.90;;;0.50;;
28353;SDS011;15603;50.878;8.036;2023-08-12T11:12:39;4.20;;;0.45;;
28353;SDS011;15603;50.878;8.036;2023-08-12T11:15:09;0.50;;;0.50;;
28353;SDS011;15603;50.878;8.036;2023-08-12T11:17:37;0.45;;;0.40;;
28353;SDS011;15603;50.878;8.036;2023-08-12T11:20:07;1.80;;;0.88;;
28353;SDS011;15603;50.878;8.036;2023-08-12T11:22:37;3.10;;;0.70;;
28353;SDS011;15603;50.878;8.036;2023-08-12T11:25:15;1.38;;;0.70;;
28353;SDS011;15603;50.878;8.036;2023-08-12T11:27:45;1.42;;;0.70;;
28353;SDS011;15603;50.878;8.036;2023-08-12T11:30:14;0.95;;;0.50;;
28353;SDS011;15603;50.878;8.036;2023-08-12T11:32:43;0.93;;;0.70;;
28353;SDS011;15603;50.878;8.036;2023-08-12T11:35:13;1.42;;;0.60;;
28353;SDS011;15603;50.878;8.036;2023-08-12T11:37:42;4.25;;;0.90;;
28353;SDS011;15603;50.878;8.036;2023-08-12T11:40:11;0.85;;;0.47;;
28353;SDS011;15603;50.878;8.036;2023-08-12T11:42:42;2.80;;;0.73;;
28353;SDS011;15603;50.878;8.036;2023-08-12T11:45:11;1.15;;;0.57;;
28353;SDS011;15603;50.878;8.036;2023-08-12T11:47:40;1.50;;;0.50;;
28353;SDS011;15603;50.878;8.036;2023-08-12T11:50:09;1.85;;;0.70;;
28353;SDS011;15603;50.878;8.036;2023-08-12T11:52:37;5.78;;;0.63;;
28353;SDS011;15603;50.878;8.036;2023-08-12T11:55:05;1.35;;;0.80;;
28353;SDS011;15603;50.878;8.036;2023-08-12T11:57:33;0.68;;;0.60;;
28353;SDS011;15603;50.878;8.036;2023-08-12T12:00:04;1.38;;;1.05;;
28353;SDS011;15603;50.878;8.036;2023-08-12T12:02:46;1.58;;;0.88;;
28353;SDS011;15603;50.878;8.036;2023-08-12T12:05:16;1.40;;;0.70;;
28353;SDS011;15603;50.878;8.036;2023-08-12T12:10:19;2.28;;;0.68;;
28353;SDS011;15603;50.878;8.036;2023-08-12T12:12:49;2.17;;;0.63;;
28353;SDS011;15603;50.878;8.036;2023-08-12T12:15:16;0.45;;;0.35;;
28353;SDS011;15603;50.878;8.036;2023-08-12T12:17:47;1.08;;;0.70;;
28353;SDS011;15603;50.878;8.036;2023-08-12T12:20:15;1.88;;;0.80;;
28353;SDS011;15603;50.878;8.036;2023-08-12T12:22:44;4.43;;;1.10;;
28353;SDS011;15603;50.878;8.036;2023-08-12T12:25:12;2.60;;;0.77;;
28353;SDS011;15603;50.878;8.036;2023-08-12T12:27:42;1.85;;;0.90;;
28353;SDS011;15603;50.878;8.036;2023-08-12T12:30:10;0.93;;;0.60;;
28353;SDS011;15603;50.878;8.036;2023-08-12T12:32:39;3.90;;;1.23;;
28353;SDS011;15603;50.878;8.036;2023-08-12T12:35:07;2.03;;;0.80;;
28353;SDS011;15603;50.878;8.036;2023-08-12T12:37:34;1.70;;;0.57;;
28353;SDS011;15603;50.878;8.036;2023-08-12T12:40:03;1.73;;;0.70;;
28353;SDS011;15603;50.878;8.036;2023-08-12T12:42:32;0.98;;;0.50;;
28353;SDS011;15603;50.878;8.036;2023-08-12T12:44:59;0.82;;;0.70;;
28353;SDS011;15603;50.878;8.036;2023-08-12T12:47:26;4.63;;;1.33;;
28353;SDS011;15603;50.878;8.036;2023-08-12T12:49:53;1.80;;;0.80;;
28353;SDS011;15603;50.878;8.036;2023-08-12T12:52:20;0.77;;;0.65;;
28353;SDS011;15603;50.878;8.036;2023-08-12T12:54:47;6.70;;;0.80;;
28353;SDS011;15603;50.878;8.036;2023-08-12T12:57:15;1.33;;;0.70;;
28353;SDS011;15603;50.878;8.036;2023-08-12T12:59:42;0.82;;;0.52;;
28353;SDS011;15603;50.878;8.036;2023-08-12T13:02:09;5.78;;;0.68;;
28353;SDS011;15603;50.878;8.036;2023-08-12T13:04:37;0.57;;;0.57;;
28353;SDS011;15603;50.878;8.036;2023-08-12T13:07:04;1.88;;;0.65;;
28353;SDS011;15603;50.878;8.036;2023-08-12T13:09:31;1.48;;;0.98;;
28353;SDS011;15603;50.878;8.036;2023-08-12T13:11:58;1.50;;;0.90;;
28353;SDS011;15603;50.878;8.036;2023-08-12T13:14:25;2.60;;;0.73;;
28353;SDS011;15603;50.878;8.036;2023-08-12T13:16:52;1.35;;;0.60;;
28353;SDS011;15603;50.878;8.036;2023-08-12T13:19:20;1.63;;;0.95;;
28353;SDS011;15603;50.878;8.036;2023-08-12T13:21:47;1.88;;;0.88;;
28353;SDS011;15603;50.878;8.036;2023-08-12T13:24:14;0.88;;;0.80;;
28353;SDS011;15603;50.878;8.036;2023-08-12T13:26:42;1.90;;;0.75;;
28353;SDS011;15603;50.878;8.036;2023-08-12T13:29:09;3.78;;;0.50;;
28353;SDS011;15603;50.878;8.036;2023-08-12T13:31:36;1.80;;;0.93;;
28353;SDS011;15603;50.878;8.036;2023-08-12T13:34:03;1.27;;;0.70;;
28353;SDS011;15603;50.878;8.036;2023-08-12T13:36:30;1.95;;;0.40;;
28353;SDS011;15603;50.878;8.036;2023-08-12T13:38:57;1.58;;;0.60;;
28353;SDS011;15603;50.878;8.036;2023-08-12T13:41:27;1.10;;;0.52;;
28353;SDS011;15603;50.878;8.036;2023-08-12T13:43:54;2.08;;;0.90;;
28353;SDS011;15603;50.878;8.036;2023-08-12T13:46:21;4.18;;;1.00;;
28353;SDS011;15603;50.878;8.036;2023-08-12T13:48:49;2.67;;;0.80;;
28353;SDS011;15603;50.878;8.036;2023-08-12T13:51:16;2.35;;;0.60;;
28353;SDS011;15603;50.878;8.036;2023-08-12T13:53:43;2.50;;;0.90;;
28353;SDS011;15603;50.878;8.036;2023-08-12T13:56:10;2.80;;;0.57;;
28353;SDS011;15603;50.878;8.036;2023-08-12T13:58:38;2.95;;;1.08;;
28353;SDS011;15603;50.878;8.036;2023-08-12T14:01:05;1.33;;;0.90;;
28353;SDS011;15603;50.878;8.036;2023-08-12T14:03:32;1.77;;;0.93;;
28353;SDS011;15603;50.878;8.036;2023-08-12T14:06:00;0.90;;;0.70;;
28353;SDS011;15603;50.878;8.036;2023-08-12T14:08:27;1.98;;;0.98;;
28353;SDS011;15603;50.878;8.036;2023-08-12T14:10:54;2.38;;;0.70;;
28353;SDS011;15603;50.878;8.036;2023-08-12T14:13:21;1.55;;;1.00;;
28353;SDS011;15603;50.878;8.036;2023-08-12T14:15:49;2.22;;;0.95;;
28353;SDS011;15603;50.878;8.036;2023-08-12T14:18:16;1.55;;;0.85;;
28353;SDS011;15603;50.878;8.036;2023-08-12T14:20:43;1.67;;;0.85;;
28353;SDS011;15603;50.878;8.036;2023-08-12T14:23:10;2.55;;;1.10;;
28353;SDS011;15603;50.878;8.036;2023-08-12T14:25:37;2.78;;;1.10;;
28353;SDS011;15603;50.878;8.036;2023-08-12T14:28:04;2.58;;;0.88;;
28353;SDS011;15603;50.878;8.036;2023-08-12T14:30:32;3.47;;;0.68;;
28353;SDS011;15603;50.878;8.036;2023-08-12T14:32:59;1.75;;;0.82;;
28353;SDS011;15603;50.878;8.036;2023-08-12T14:35:26;1.45;;;0.88;;
28353;SDS011;15603;50.878;8.036;2023-08-12T14:37:53;1.08;;;0.75;;
28353;SDS011;15603;50.878;8.036;2023-08-12T14:40:20;1.05;;;0.80;;
28353;SDS011;15603;50.878;8.036;2023-08-12T14:42:47;1.70;;;0.98;;
28353;SDS011;15603;50.878;8.036;2023-08-12T14:45:15;1.30;;;0.80;;
28353;SDS011;15603;50.878;8.036;2023-08-12T14:47:43;2.67;;;0.98;;
28353;SDS011;15603;50.878;8.036;2023-08-12T14:50:10;1.35;;;0.85;;
28353;SDS011;15603;50.878;8.036;2023-08-12T14:52:37;0.93;;;0.80;;
28353;SDS011;15603;50.878;8.036;2023-08-12T14:55:04;1.73;;;0.75;;
28353;SDS011;15603;50.878;8.036;2023-08-12T14:57:32;1.45;;;0.80;;
28353;SDS011;15603;50.878;8.036;2023-08-12T15:00:01;1.70;;;0.80;;
28353;SDS011;15603;50.878;8.036;2023-08-12T15:02:29;0.77;;;0.60;;
28353;SDS011;15603;50.878;8.036;2023-08-12T15:04:59;1.30;;;0.65;;